sensor_id;sensor_type;location;lat;lon;timestamp;temperature;humidity
11559;DHT22;5835;42.930;25.178;2022-10-31T00:01:10;14.20;1.00
11559;DHT22;5835;42.930;25.178;2022-10-31T00:03:38;14.10;1.00
11559;DHT22;5835;42.930;25.178;2022-10-31T00:06:06;14.40;1.00
11559;DHT22;5835;42.930;25.178;2022-10-31T00:08:34;14.50;1.00
11559;DHT22;5835;42.930;25.178;2022-10-31T00:11:07;14.50;1.00
11559;DHT22;5835;42.930;25.178;2022-10-31T00:13:35;14.60;1.00
11559;DHT22;5835;42.930;25.178;2022-10-31T00:16:03;14.50;1.00
11559;DHT22;5835;42.930;25.178;2022-10-31T00:18:31;14.60;1.00
11559;DHT22;5835;42.930;25.178;2022-10-31T00:20:59;14.60;1.00
11559;DHT22;5835;42.930;25.178;2022-10-31T00:23:27;14.50;1.00
11559;DHT22;5835;42.930;25.178;2022-10-31T00:26:00;14.20;1.00
11559;DHT22;5835;42.930;25.178;2022-10-31T00:28:29;13.90;1.00
11559;DHT22;5835;42.930;25.178;2022-10-31T00:30:59;13.60;1.00
11559;DHT22;5835;42.930;25.178;2022-10-31T00:33:27;13.70;1.00
11559;DHT22;5835;42.930;25.178;2022-10-31T00:35:55;13.60;1.00
11559;DHT22;5835;42.930;25.178;2022-10-31T00:38:23;13.60;8.80
11559;DHT22;5835;42.930;25.178;2022-10-31T00:40:51;13.60;19.50
11559;DHT22;5835;42.930;25.178;2022-10-31T00:43:18;13.60;28.00
11559;DHT22;5835;42.930;25.178;2022-10-31T00:45:47;13.50;55.30
11559;DHT22;5835;42.930;25.178;2022-10-31T00:48:15;13.50;95.90
11559;DHT22;5835;42.930;25.178;2022-10-31T00:50:43;13.40;99.90
11559;DHT22;5835;42.930;25.178;2022-10-31T00:53:10;13.50;94.50
11559;DHT22;5835;42.930;25.178;2022-10-31T00:55:38;13.70;60.50
11559;DHT22;5835;42.930;25.178;2022-10-31T00:58:05;13.90;23.50
11559;DHT22;5835;42.930;25.178;2022-10-31T01:00:33;14.00;2.90
11559;DHT22;5835;42.930;25.178;2022-10-31T01:03:02;14.00;1.00
11559;DHT22;5835;42.930;25.178;2022-10-31T01:05:30;13.70;1.00
11559;DHT22;5835;42.930;25.178;2022-10-31T01:07:58;13.60;30.30
11559;DHT22;5835;42.930;25.178;2022-10-31T01:10:26;13.50;57.50
11559;DHT22;5835;42.930;25.178;2022-10-31T01:12:53;13.30;93.10
11559;DHT22;5835;42.930;25.178;2022-10-31T01:15:22;13.20;92.20
11559;DHT22;5835;42.930;25.178;2022-10-31T01:17:50;13.30;99.90
11559;DHT22;5835;42.930;25.178;2022-10-31T01:20:19;13.30;97.30
11559;DHT22;5835;42.930;25.178;2022-10-31T01:22:47;13.30;99.90
11559;DHT22;5835;42.930;25.178;2022-10-31T01:25:15;13.30;96.70
11559;DHT22;5835;42.930;25.178;2022-10-31T01:27:42;13.20;99.90
11559;DHT22;5835;42.930;25.178;2022-10-31T01:30:11;13.10;99.90
11559;DHT22;5835;42.930;25.178;2022-10-31T01:32:38;13.10;99.90
11559;DHT22;5835;42.930;25.178;2022-10-31T01:35:06;13.20;99.90
11559;DHT22;5835;42.930;25.178;2022-10-31T01:37:35;13.20;99.90
11559;DHT22;5835;42.930;25.178;2022-10-31T01:40:03;13.20;99.90
11559;DHT22;5835;42.930;25.178;2022-10-31T01:42:30;13.30;99.90
11559;DHT22;5835;42.930;25.178;2022-10-31T01:45:00;13.40;99.90
11559;DHT22;5835;42.930;25.178;2022-10-31T01:47:38;13.40;99.90
11559;DHT22;5835;42.930;25.178;2022-10-31T01:50:14;13.40;99.90
11559;DHT22;5835;42.930;25.178;2022-10-31T01:52:46;13.40;95.30
11559;DHT22;5835;42.930;25.178;2022-10-31T01:55:18;13.40;99.90
11559;DHT22;5835;42.930;25.178;2022-10-31T01:57:48;13.20;99.90
11559;DHT22;5835;42.930;25.178;2022-10-31T02:00:19;13.10;99.90
11559;DHT22;5835;42.930;25.178;2022-10-31T02:02:48;13.00;99.90
11559;DHT22;5835;42.930;25.178;2022-10-31T02:05:19;12.70;99.90
11559;DHT22;5835;42.930;25.178;2022-10-31T02:07:54;13.10;99.90
11559;DHT22;5835;42.930;25.178;2022-10-31T02:10:23;13.30;99.90
11559;DHT22;5835;42.930;25.178;2022-10-31T02:12:53;13.40;99.90
11559;DHT22;5835;42.930;25.178;2022-10-31T02:15:22;13.60;99.90
11559;DHT22;5835;42.930;25.178;2022-10-31T02:17:50;13.70;99.90
11559;DHT22;5835;42.930;25.178;2022-10-31T02:20:20;13.50;99.90
11559;DHT22;5835;42.930;25.178;2022-10-31T02:23:14;13.50;99.90
11559;DHT22;5835;42.930;25.178;2022-10-31T02:26:15;13.30;99.90
11559;DHT22;5835;42.930;25.178;2022-10-31T02:29:13;13.30;99.90
11559;DHT22;5835;42.930;25.178;2022-10-31T02:31:49;13.20;99.90
11559;DHT22;5835;42.930;25.178;2022-10-31T02:34:32;13.10;99.90
11559;DHT22;5835;42.930;25.178;2022-10-31T02:37:08;13.00;99.90
11559;DHT22;5835;42.930;25.178;2022-10-31T02:39:44;13.20;99.90
11559;DHT22;5835;42.930;25.178;2022-10-31T02:42:20;13.10;99.90
11559;DHT22;5835;42.930;25.178;2022-10-31T02:44:55;13.10;99.90
11559;DHT22;5835;42.930;25.178;2022-10-31T02:47:27;13.00;99.90
11559;DHT22;5835;42.930;25.178;2022-10-31T02:49:57;13.10;99.90
11559;DHT22;5835;42.930;25.178;2022-10-31T02:52:29;13.10;99.90
11559;DHT22;5835;42.930;25.178;2022-10-31T02:54:57;13.10;99.90
11559;DHT22;5835;42.930;25.178;2022-10-31T02:57:28;13.20;99.90
11559;DHT22;5835;42.930;25.178;2022-10-31T03:00:00;13.20;99.90
11559;DHT22;5835;42.930;25.178;2022-10-31T03:02:39;13.20;99.90
11559;DHT22;5835;42.930;25.178;2022-10-31T03:05:27;13.20;99.90
11559;DHT22;5835;42.930;25.178;2022-10-31T03:08:01;13.40;99.90
11559;DHT22;5835;42.930;25.178;2022-10-31T03:10:35;13.30;99.90
11559;DHT22;5835;42.930;25.178;2022-10-31T03:13:10;13.20;99.90
11559;DHT22;5835;42.930;25.178;2022-10-31T03:15:42;13.20;99.90
11559;DHT22;5835;42.930;25.178;2022-10-31T03:18:15;13.20;99.90
11559;DHT22;5835;42.930;25.178;2022-10-31T03:20:48;13.30;99.90
11559;DHT22;5835;42.930;25.178;2022-10-31T03:23:19;13.30;99.90
11559;DHT22;5835;42.930;25.178;2022-10-31T03:25:49;13.40;99.90
11559;DHT22;5835;42.930;25.178;2022-10-31T03:28:20;13.40;99.90
11559;DHT22;5835;42.930;25.178;2022-10-31T03:30:50;13.40;99.90
11559;DHT22;5835;42.930;25.178;2022-10-31T03:33:23;13.50;99.90
11559;DHT22;5835;42.930;25.178;2022-10-31T03:35:54;13.50;99.90
11559;DHT22;5835;42.930;25.178;2022-10-31T03:38:22;13.60;99.90
11559;DHT22;5835;42.930;25.178;2022-10-31T03:40:52;13.60;99.90
11559;DHT22;5835;42.930;25.178;2022-10-31T03:43:24;13.60;99.90
11559;DHT22;5835;42.930;25.178;2022-10-31T03:45:53;13.50;99.90
11559;DHT22;5835;42.930;25.178;2022-10-31T03:48:22;13.50;99.90
11559;DHT22;5835;42.930;25.178;2022-10-31T03:50:58;13.50;99.90
11559;DHT22;5835;42.930;25.178;2022-10-31T03:53:32;13.50;99.90
11559;DHT22;5835;42.930;25.178;2022-10-31T03:56:03;13.50;99.90
11559;DHT22;5835;42.930;25.178;2022-10-31T03:58:35;13.50;99.90
11559;DHT22;5835;42.930;25.178;2022-10-31T04:01:06;13.50;99.90
11559;DHT22;5835;42.930;25.178;2022-10-31T04:03:38;13.50;99.90
11559;DHT22;5835;42.930;25.178;2022-10-31T04:06:08;13.60;99.90
11559;DHT22;5835;42.930;25.178;2022-10-31T04:08:39;13.70;99.90
11559;DHT22;5835;42.930;25.178;2022-10-31T04:11:10;13.70;99.90
11559;DHT22;5835;42.930;25.178;2022-10-31T04:13:40;13.80;99.90
11559;DHT22;5835;42.930;25.178;2022-10-31T04:16:10;13.80;99.90
11559;DHT22;5835;42.930;25.178;2022-10-31T04:18:40;13.90;99.90
11559;DHT22;5835;42.930;25.178;2022-10-31T04:21:08;13.80;99.90
11559;DHT22;5835;42.930;25.178;2022-10-31T04:23:36;13.80;99.90
11559;DHT22;5835;42.930;25.178;2022-10-31T04:26:04;13.80;99.90
11559;DHT22;5835;42.930;25.178;2022-10-31T04:28:31;13.70;99.90
11559;DHT22;5835;42.930;25.178;2022-10-31T04:30:59;13.80;99.90
11559;DHT22;5835;42.930;25.178;2022-10-31T04:33:27;13.80;99.90
11559;DHT22;5835;42.930;25.178;2022-10-31T04:35:56;13.90;99.90
11559;DHT22;5835;42.930;25.178;2022-10-31T04:38:24;13.80;99.90
11559;DHT22;5835;42.930;25.178;2022-10-31T04:40:51;13.80;99.90
11559;DHT22;5835;42.930;25.178;2022-10-31T04:43:19;13.80;99.90
11559;DHT22;5835;42.930;25.178;2022-10-31T04:45:47;13.90;99.90
11559;DHT22;5835;42.930;25.178;2022-10-31T04:48:15;13.90;99.90
11559;DHT22;5835;42.930;25.178;2022-10-31T04:50:46;13.90;99.90
11559;DHT22;5835;42.930;25.178;2022-10-31T04:53:15;13.90;99.90
11559;DHT22;5835;42.930;25.178;2022-10-31T04:55:44;13.80;99.90
11559;DHT22;5835;42.930;25.178;2022-10-31T04:58:12;13.70;99.90
11559;DHT22;5835;42.930;25.178;2022-10-31T05:00:39;13.80;99.90
11559;DHT22;5835;42.930;25.178;2022-10-31T05:03:07;13.90;99.90
11559;DHT22;5835;42.930;25.178;2022-10-31T05:05:35;13.90;99.90
11559;DHT22;5835;42.930;25.178;2022-10-31T05:08:03;13.90;99.90
11559;DHT22;5835;42.930;25.178;2022-10-31T05:10:32;13.80;99.90
11559;DHT22;5835;42.930;25.178;2022-10-31T05:13:01;13.80;99.90
11559;DHT22;5835;42.930;25.178;2022-10-31T05:15:30;13.80;99.90
11559;DHT22;5835;42.930;25.178;2022-10-31T05:17:58;13.80;99.90
11559;DHT22;5835;42.930;25.178;2022-10-31T05:20:27;13.90;99.90
11559;DHT22;5835;42.930;25.178;2022-10-31T05:22:56;13.80;99.90
11559;DHT22;5835;42.930;25.178;2022-10-31T05:25:26;13.90;99.90
11559;DHT22;5835;42.930;25.178;2022-10-31T05:27:56;13.80;99.90
11559;DHT22;5835;42.930;25.178;2022-10-31T05:30:25;13.80;99.90
11559;DHT22;5835;42.930;25.178;2022-10-31T05:32:53;13.90;99.90
11559;DHT22;5835;42.930;25.178;2022-10-31T05:35:23;13.80;99.90
11559;DHT22;5835;42.930;25.178;2022-10-31T05:37:51;13.80;99.90
11559;DHT22;5835;42.930;25.178;2022-10-31T05:40:20;14.00;99.90
11559;DHT22;5835;42.930;25.178;2022-10-31T05:42:50;14.00;99.90
11559;DHT22;5835;42.930;25.178;2022-10-31T05:45:20;13.90;99.90
11559;DHT22;5835;42.930;25.178;2022-10-31T05:47:51;13.90;99.90
11559;DHT22;5835;42.930;25.178;2022-10-31T05:50:19;13.90;99.90
11559;DHT22;5835;42.930;25.178;2022-10-31T05:52:47;14.00;99.90
11559;DHT22;5835;42.930;25.178;2022-10-31T05:55:15;14.00;99.90
11559;DHT22;5835;42.930;25.178;2022-10-31T05:57:42;14.10;99.90
11559;DHT22;5835;42.930;25.178;2022-10-31T06:00:11;14.00;99.90
11559;DHT22;5835;42.930;25.178;2022-10-31T06:02:40;14.00;99.90
11559;DHT22;5835;42.930;25.178;2022-10-31T06:05:08;14.10;99.90
11559;DHT22;5835;42.930;25.178;2022-10-31T06:07:36;14.30;99.90
11559;DHT22;5835;42.930;25.178;2022-10-31T06:10:05;14.20;99.90
11559;DHT22;5835;42.930;25.178;2022-10-31T06:12:33;14.30;99.90
11559;DHT22;5835;42.930;25.178;2022-10-31T06:15:05;14.40;99.90
11559;DHT22;5835;42.930;25.178;2022-10-31T06:17:33;14.40;99.90
11559;DHT22;5835;42.930;25.178;2022-10-31T06:20:04;14.50;99.90
11559;DHT22;5835;42.930;25.178;2022-10-31T06:22:31;14.60;99.90
11559;DHT22;5835;42.930;25.178;2022-10-31T06:24:59;14.60;99.90
11559;DHT22;5835;42.930;25.178;2022-10-31T06:27:27;14.80;99.90
11559;DHT22;5835;42.930;25.178;2022-10-31T06:29:54;14.80;99.90
11559;DHT22;5835;42.930;25.178;2022-10-31T06:32:22;14.80;99.90
11559;DHT22;5835;42.930;25.178;2022-10-31T06:34:49;14.90;99.90
11559;DHT22;5835;42.930;25.178;2022-10-31T06:37:18;14.90;99.90
11559;DHT22;5835;42.930;25.178;2022-10-31T06:39:46;15.00;95.50
11559;DHT22;5835;42.930;25.178;2022-10-31T06:42:15;15.10;67.60
11559;DHT22;5835;42.930;25.178;2022-10-31T06:44:43;15.10;99.90
11559;DHT22;5835;42.930;25.178;2022-10-31T06:47:11;15.00;95.50
11559;DHT22;5835;42.930;25.178;2022-10-31T06:49:38;15.00;97.50
11559;DHT22;5835;42.930;25.178;2022-10-31T06:52:06;15.00;90.40
11559;DHT22;5835;42.930;25.178;2022-10-31T06:54:35;15.00;99.90
11559;DHT22;5835;42.930;25.178;2022-10-31T06:57:03;15.00;99.90
11559;DHT22;5835;42.930;25.178;2022-10-31T06:59:31;15.10;82.60
11559;DHT22;5835;42.930;25.178;2022-10-31T07:01:58;15.20;82.20
11559;DHT22;5835;42.930;25.178;2022-10-31T07:04:26;15.30;73.00
11559;DHT22;5835;42.930;25.178;2022-10-31T07:06:54;15.30;54.50
11559;DHT22;5835;42.930;25.178;2022-10-31T07:09:25;15.30;40.50
11559;DHT22;5835;42.930;25.178;2022-10-31T07:11:54;15.50;52.10
11559;DHT22;5835;42.930;25.178;2022-10-31T07:14:21;15.50;43.20
11559;DHT22;5835;42.930;25.178;2022-10-31T07:16:49;15.70;46.20
11559;DHT22;5835;42.930;25.178;2022-10-31T07:19:17;15.80;49.20
11559;DHT22;5835;42.930;25.178;2022-10-31T07:21:44;15.90;50.10
11559;DHT22;5835;42.930;25.178;2022-10-31T07:24:12;16.00;49.40
11559;DHT22;5835;42.930;25.178;2022-10-31T07:26:39;16.10;21.00
11559;DHT22;5835;42.930;25.178;2022-10-31T07:29:09;16.10;15.80
11559;DHT22;5835;42.930;25.178;2022-10-31T07:31:37;16.20;5.70
11559;DHT22;5835;42.930;25.178;2022-10-31T07:34:07;16.20;1.00
11559;DHT22;5835;42.930;25.178;2022-10-31T07:36:34;16.30;9.10
11559;DHT22;5835;42.930;25.178;2022-10-31T07:39:02;16.40;9.60
11559;DHT22;5835;42.930;25.178;2022-10-31T07:41:29;16.40;1.00
11559;DHT22;5835;42.930;25.178;2022-10-31T07:43:57;16.50;1.00
11559;DHT22;5835;42.930;25.178;2022-10-31T07:46:26;16.70;1.00
11559;DHT22;5835;42.930;25.178;2022-10-31T07:48:53;16.70;1.00
11559;DHT22;5835;42.930;25.178;2022-10-31T07:51:21;16.90;1.00
11559;DHT22;5835;42.930;25.178;2022-10-31T07:53:49;17.00;1.00
11559;DHT22;5835;42.930;25.178;2022-10-31T07:56:17;17.00;1.00
11559;DHT22;5835;42.930;25.178;2022-10-31T07:58:45;17.10;1.00
11559;DHT22;5835;42.930;25.178;2022-10-31T08:01:12;17.30;1.00
11559;DHT22;5835;42.930;25.178;2022-10-31T08:03:42;17.50;1.00
11559;DHT22;5835;42.930;25.178;2022-10-31T08:06:09;17.60;1.00
11559;DHT22;5835;42.930;25.178;2022-10-31T08:08:37;17.70;1.00
11559;DHT22;5835;42.930;25.178;2022-10-31T08:11:05;17.90;1.00
11559;DHT22;5835;42.930;25.178;2022-10-31T08:13:32;18.00;1.00
11559;DHT22;5835;42.930;25.178;2022-10-31T08:16:00;18.10;1.00
11559;DHT22;5835;42.930;25.178;2022-10-31T08:18:30;18.10;1.00
11559;DHT22;5835;42.930;25.178;2022-10-31T08:20:59;18.30;1.00
11559;DHT22;5835;42.930;25.178;2022-10-31T08:23:26;18.50;1.00
11559;DHT22;5835;42.930;25.178;2022-10-31T08:25:54;18.80;1.00
11559;DHT22;5835;42.930;25.178;2022-10-31T08:28:21;18.70;1.00
11559;DHT22;5835;42.930;25.178;2022-10-31T08:30:49;18.70;1.00
11559;DHT22;5835;42.930;25.178;2022-10-31T08:33:17;18.90;1.00
11559;DHT22;5835;42.930;25.178;2022-10-31T08:35:45;19.00;1.00
11559;DHT22;5835;42.930;25.178;2022-10-31T08:38:15;18.90;1.00
11559;DHT22;5835;42.930;25.178;2022-10-31T08:40:42;19.10;1.00
11559;DHT22;5835;42.930;25.178;2022-10-31T08:43:13;19.30;1.00
11559;DHT22;5835;42.930;25.178;2022-10-31T08:45:41;19.40;1.00
11559;DHT22;5835;42.930;25.178;2022-10-31T08:48:10;19.30;1.00
11559;DHT22;5835;42.930;25.178;2022-10-31T08:50:38;19.50;1.00
11559;DHT22;5835;42.930;25.178;2022-10-31T08:53:07;19.70;1.00
11559;DHT22;5835;42.930;25.178;2022-10-31T08:55:37;19.70;1.00
11559;DHT22;5835;42.930;25.178;2022-10-31T08:58:06;19.70;1.00
11559;DHT22;5835;42.930;25.178;2022-10-31T09:00:35;19.80;1.00
11559;DHT22;5835;42.930;25.178;2022-10-31T09:03:04;19.90;1.00
11559;DHT22;5835;42.930;25.178;2022-10-31T09:05:32;20.10;1.00
11559;DHT22;5835;42.930;25.178;2022-10-31T09:08:01;20.30;1.00
11559;DHT22;5835;42.930;25.178;2022-10-31T09:10:29;20.10;1.00
11559;DHT22;5835;42.930;25.178;2022-10-31T09:12:59;20.10;1.00
11559;DHT22;5835;42.930;25.178;2022-10-31T09:15:28;20.40;1.00
11559;DHT22;5835;42.930;25.178;2022-10-31T09:17:55;20.60;1.00
11559;DHT22;5835;42.930;25.178;2022-10-31T09:20:23;20.70;1.00
11559;DHT22;5835;42.930;25.178;2022-10-31T09:22:56;20.80;1.00
11559;DHT22;5835;42.930;25.178;2022-10-31T09:25:24;20.60;1.00
11559;DHT22;5835;42.930;25.178;2022-10-31T09:27:55;20.70;1.00
11559;DHT22;5835;42.930;25.178;2022-10-31T09:30:25;20.70;1.00
11559;DHT22;5835;42.930;25.178;2022-10-31T09:32:55;20.80;1.00
11559;DHT22;5835;42.930;25.178;2022-10-31T09:35:23;20.80;1.00
11559;DHT22;5835;42.930;25.178;2022-10-31T09:37:54;21.10;1.00
11559;DHT22;5835;42.930;25.178;2022-10-31T09:40:22;20.90;1.00
11559;DHT22;5835;42.930;25.178;2022-10-31T09:42:57;20.90;1.00
11559;DHT22;5835;42.930;25.178;2022-10-31T09:45:33;20.90;1.00
11559;DHT22;5835;42.930;25.178;2022-10-31T09:48:13;20.90;1.00
11559;DHT22;5835;42.930;25.178;2022-10-31T09:50:46;21.10;1.00
11559;DHT22;5835;42.930;25.178;2022-10-31T09:53:23;21.50;1.00
11559;DHT22;5835;42.930;25.178;2022-10-31T09:55:53;21.40;1.00
11559;DHT22;5835;42.930;25.178;2022-10-31T09:58:23;21.50;1.00
11559;DHT22;5835;42.930;25.178;2022-10-31T10:00:55;21.60;1.00
11559;DHT22;5835;42.930;25.178;2022-10-31T10:03:30;21.80;1.00
11559;DHT22;5835;42.930;25.178;2022-10-31T10:06:06;21.70;1.00
11559;DHT22;5835;42.930;25.178;2022-10-31T10:08:36;21.80;1.00
11559;DHT22;5835;42.930;25.178;2022-10-31T10:11:15;22.00;1.00
11559;DHT22;5835;42.930;25.178;2022-10-31T10:14:04;21.90;1.00
11559;DHT22;5835;42.930;25.178;2022-10-31T10:16:49;22.00;1.00
11559;DHT22;5835;42.930;25.178;2022-10-31T10:19:29;22.00;1.00
11559;DHT22;5835;42.930;25.178;2022-10-31T10:22:12;22.30;1.00
11559;DHT22;5835;42.930;25.178;2022-10-31T10:25:01;22.40;1.00
11559;DHT22;5835;42.930;25.178;2022-10-31T10:27:42;22.30;1.00
11559;DHT22;5835;42.930;25.178;2022-10-31T10:30:15;22.20;1.00
11559;DHT22;5835;42.930;25.178;2022-10-31T10:32:46;21.90;1.00
11559;DHT22;5835;42.930;25.178;2022-10-31T10:35:21;21.90;1.00
11559;DHT22;5835;42.930;25.178;2022-10-31T10:37:52;21.90;1.00
11559;DHT22;5835;42.930;25.178;2022-10-31T10:40:22;22.00;1.00
11559;DHT22;5835;42.930;25.178;2022-10-31T10:42:58;22.00;1.00
11559;DHT22;5835;42.930;25.178;2022-10-31T10:45:48;22.20;1.00
11559;DHT22;5835;42.930;25.178;2022-10-31T10:48:41;22.30;1.00
11559;DHT22;5835;42.930;25.178;2022-10-31T10:51:20;22.40;1.00
11559;DHT22;5835;42.930;25.178;2022-10-31T10:53:58;22.30;1.00
11559;DHT22;5835;42.930;25.178;2022-10-31T10:56:43;22.40;1.00
11559;DHT22;5835;42.930;25.178;2022-10-31T10:59:16;22.40;1.00
11559;DHT22;5835;42.930;25.178;2022-10-31T11:01:45;22.40;1.00
11559;DHT22;5835;42.930;25.178;2022-10-31T11:04:30;22.90;1.00
11559;DHT22;5835;42.930;25.178;2022-10-31T11:07:03;22.50;1.00
11559;DHT22;5835;42.930;25.178;2022-10-31T11:09:33;22.70;1.00
11559;DHT22;5835;42.930;25.178;2022-10-31T11:12:07;22.80;1.00
11559;DHT22;5835;42.930;25.178;2022-10-31T11:14:42;23.10;1.00
11559;DHT22;5835;42.930;25.178;2022-10-31T11:17:26;23.10;1.00
11559;DHT22;5835;42.930;25.178;2022-10-31T11:20:05;23.10;1.00
11559;DHT22;5835;42.930;25.178;2022-10-31T11:22:33;23.20;1.00
11559;DHT22;5835;42.930;25.178;2022-10-31T11:25:11;23.40;1.00
11559;DHT22;5835;42.930;25.178;2022-10-31T11:27:39;23.30;99.90
11559;DHT22;5835;42.930;25.178;2022-10-31T11:30:09;23.00;99.90
11559;DHT22;5835;42.930;25.178;2022-10-31T11:32:41;23.30;99.90
11559;DHT22;5835;42.930;25.178;2022-10-31T11:35:15;23.30;99.90
11559;DHT22;5835;42.930;25.178;2022-10-31T11:37:46;23.20;99.90
11559;DHT22;5835;42.930;25.178;2022-10-31T11:40:18;23.40;99.90
11559;DHT22;5835;42.930;25.178;2022-10-31T11:42:46;23.60;99.90
11559;DHT22;5835;42.930;25.178;2022-10-31T11:45:16;23.50;99.90
11559;DHT22;5835;42.930;25.178;2022-10-31T11:47:50;23.20;99.90
11559;DHT22;5835;42.930;25.178;2022-10-31T11:50:22;23.20;99.90
11559;DHT22;5835;42.930;25.178;2022-10-31T11:52:50;23.00;99.90
11559;DHT22;5835;42.930;25.178;2022-10-31T11:55:31;23.20;99.90
11559;DHT22;5835;42.930;25.178;2022-10-31T11:57:59;22.90;99.90
11559;DHT22;5835;42.930;25.178;2022-10-31T12:00:28;22.90;99.90
11559;DHT22;5835;42.930;25.178;2022-10-31T12:03:11;23.00;99.90
11559;DHT22;5835;42.930;25.178;2022-10-31T12:05:42;23.20;99.90
11559;DHT22;5835;42.930;25.178;2022-10-31T12:08:12;23.00;99.90
11559;DHT22;5835;42.930;25.178;2022-10-31T12:10:49;23.00;99.90
11559;DHT22;5835;42.930;25.178;2022-10-31T12:13:31;22.80;99.90
11559;DHT22;5835;42.930;25.178;2022-10-31T12:16:04;22.70;99.90
11559;DHT22;5835;42.930;25.178;2022-10-31T12:18:56;23.00;1.00
11559;DHT22;5835;42.930;25.178;2022-10-31T12:24:32;23.10;99.90
11559;DHT22;5835;42.930;25.178;2022-10-31T12:27:10;23.10;99.90
11559;DHT22;5835;42.930;25.178;2022-10-31T12:30:08;23.20;99.90
11559;DHT22;5835;42.930;25.178;2022-10-31T12:32:49;23.10;99.90
11559;DHT22;5835;42.930;25.178;2022-10-31T12:35:44;23.10;99.90
11559;DHT22;5835;42.930;25.178;2022-10-31T12:38:37;23.10;99.90
11559;DHT22;5835;42.930;25.178;2022-10-31T12:41:21;23.00;99.90
11559;DHT22;5835;42.930;25.178;2022-10-31T12:43:56;23.10;99.90
11559;DHT22;5835;42.930;25.178;2022-10-31T12:46:34;23.00;99.90
11559;DHT22;5835;42.930;25.178;2022-10-31T12:49:17;23.00;99.90
11559;DHT22;5835;42.930;25.178;2022-10-31T12:51:59;23.00;99.90
11559;DHT22;5835;42.930;25.178;2022-10-31T12:54:44;23.20;99.90
11559;DHT22;5835;42.930;25.178;2022-10-31T12:57:22;23.10;99.90
11559;DHT22;5835;42.930;25.178;2022-10-31T12:59:53;23.10;99.90
11559;DHT22;5835;42.930;25.178;2022-10-31T13:02:26;23.00;99.90
11559;DHT22;5835;42.930;25.178;2022-10-31T13:04:57;23.00;99.90
11559;DHT22;5835;42.930;25.178;2022-10-31T13:07:30;23.20;99.90
11559;DHT22;5835;42.930;25.178;2022-10-31T13:10:03;23.10;99.90
11559;DHT22;5835;42.930;25.178;2022-10-31T13:12:32;22.80;99.90
11559;DHT22;5835;42.930;25.178;2022-10-31T13:15:05;22.50;99.90
11559;DHT22;5835;42.930;25.178;2022-10-31T13:17:41;22.40;99.90
11559;DHT22;5835;42.930;25.178;2022-10-31T13:20:23;22.50;99.90
11559;DHT22;5835;42.930;25.178;2022-10-31T13:22:56;22.60;99.90
11559;DHT22;5835;42.930;25.178;2022-10-31T13:25:30;22.60;99.90
11559;DHT22;5835;42.930;25.178;2022-10-31T13:28:01;22.70;99.90
11559;DHT22;5835;42.930;25.178;2022-10-31T13:30:32;22.40;99.90
11559;DHT22;5835;42.930;25.178;2022-10-31T13:33:02;22.40;99.90
11559;DHT22;5835;42.930;25.178;2022-10-31T13:35:37;22.30;99.90
11559;DHT22;5835;42.930;25.178;2022-10-31T13:38:20;22.30;99.90
11559;DHT22;5835;42.930;25.178;2022-10-31T13:40:55;22.20;99.90
11559;DHT22;5835;42.930;25.178;2022-10-31T13:43:31;22.20;99.90
11559;DHT22;5835;42.930;25.178;2022-10-31T13:46:00;22.30;99.90
11559;DHT22;5835;42.930;25.178;2022-10-31T13:48:37;22.00;99.90
11559;DHT22;5835;42.930;25.178;2022-10-31T13:51:09;22.20;99.90
11559;DHT22;5835;42.930;25.178;2022-10-31T13:53:40;22.20;99.90
11559;DHT22;5835;42.930;25.178;2022-10-31T13:56:18;22.20;99.90
11559;DHT22;5835;42.930;25.178;2022-10-31T13:59:15;22.20;99.90
11559;DHT22;5835;42.930;25.178;2022-10-31T14:01:51;22.30;99.90
11559;DHT22;5835;42.930;25.178;2022-10-31T14:04:21;22.40;99.90
11559;DHT22;5835;42.930;25.178;2022-10-31T14:06:56;22.30;99.90
11559;DHT22;5835;42.930;25.178;2022-10-31T14:09:29;22.30;99.90
11559;DHT22;5835;42.930;25.178;2022-10-31T14:12:01;22.30;99.90
11559;DHT22;5835;42.930;25.178;2022-10-31T14:14:38;22.30;99.90
11559;DHT22;5835;42.930;25.178;2022-10-31T14:17:21;22.20;99.90
11559;DHT22;5835;42.930;25.178;2022-10-31T14:22:46;22.10;99.90
11559;DHT22;5835;42.930;25.178;2022-10-31T14:25:27;22.10;99.90
11559;DHT22;5835;42.930;25.178;2022-10-31T14:27:58;22.20;99.90
11559;DHT22;5835;42.930;25.178;2022-10-31T14:30:28;22.10;99.90
11559;DHT22;5835;42.930;25.178;2022-10-31T14:32:58;22.00;99.90
11559;DHT22;5835;42.930;25.178;2022-10-31T14:35:34;21.90;99.90
11559;DHT22;5835;42.930;25.178;2022-10-31T14:38:19;21.80;99.90
11559;DHT22;5835;42.930;25.178;2022-10-31T14:41:02;21.80;99.90
11559;DHT22;5835;42.930;25.178;2022-10-31T14:44:10;21.80;99.90
11559;DHT22;5835;42.930;25.178;2022-10-31T14:46:49;21.60;99.90
11559;DHT22;5835;42.930;25.178;2022-10-31T14:49:37;21.60;99.90
11559;DHT22;5835;42.930;25.178;2022-10-31T14:52:08;21.50;99.90
11559;DHT22;5835;42.930;25.178;2022-10-31T14:54:42;21.50;99.90
11559;DHT22;5835;42.930;25.178;2022-10-31T14:57:16;21.40;99.90
11559;DHT22;5835;42.930;25.178;2022-10-31T14:59:52;21.20;99.90
11559;DHT22;5835;42.930;25.178;2022-10-31T15:02:24;21.00;1.00
11559;DHT22;5835;42.930;25.178;2022-10-31T15:04:54;21.00;1.00
11559;DHT22;5835;42.930;25.178;2022-10-31T15:07:24;20.80;1.00
11559;DHT22;5835;42.930;25.178;2022-10-31T15:09:59;20.70;1.00
11559;DHT22;5835;42.930;25.178;2022-10-31T15:12:28;20.60;1.00
11559;DHT22;5835;42.930;25.178;2022-10-31T15:14:57;20.60;1.00
11559;DHT22;5835;42.930;25.178;2022-10-31T15:17:26;20.50;1.00
11559;DHT22;5835;42.930;25.178;2022-10-31T15:19:54;20.30;1.00
11559;DHT22;5835;42.930;25.178;2022-10-31T15:22:31;20.30;1.00
11559;DHT22;5835;42.930;25.178;2022-10-31T15:24:58;20.20;1.00
11559;DHT22;5835;42.930;25.178;2022-10-31T15:27:26;20.20;1.00
11559;DHT22;5835;42.930;25.178;2022-10-31T15:29:57;20.20;1.00
11559;DHT22;5835;42.930;25.178;2022-10-31T15:32:26;20.10;1.00
11559;DHT22;5835;42.930;25.178;2022-10-31T15:34:55;20.10;1.00
11559;DHT22;5835;42.930;25.178;2022-10-31T15:37:24;20.10;1.00
11559;DHT22;5835;42.930;25.178;2022-10-31T15:39:53;20.10;1.00
11559;DHT22;5835;42.930;25.178;2022-10-31T15:42:23;20.00;1.00
11559;DHT22;5835;42.930;25.178;2022-10-31T15:44:55;19.90;1.00
11559;DHT22;5835;42.930;25.178;2022-10-31T15:47:25;19.60;1.00
11559;DHT22;5835;42.930;25.178;2022-10-31T15:49:54;19.50;1.00
11559;DHT22;5835;42.930;25.178;2022-10-31T15:52:28;19.40;1.00
11559;DHT22;5835;42.930;25.178;2022-10-31T15:54:59;19.20;1.00
11559;DHT22;5835;42.930;25.178;2022-10-31T15:57:27;19.20;1.00
11559;DHT22;5835;42.930;25.178;2022-10-31T15:59:56;19.20;1.00
11559;DHT22;5835;42.930;25.178;2022-10-31T16:02:26;19.10;1.00
11559;DHT22;5835;42.930;25.178;2022-10-31T16:04:55;19.00;1.00
11559;DHT22;5835;42.930;25.178;2022-10-31T16:07:24;18.80;1.00
11559;DHT22;5835;42.930;25.178;2022-10-31T16:09:54;18.70;1.00
11559;DHT22;5835;42.930;25.178;2022-10-31T16:12:23;18.70;1.00